Time;durP1;ratioP1;P1;durP2;ratioP2;P2;SDS_P1;SDS_P2;PMS_P1;PMS_P2;Temp;Humidity;BMP_temperature;BMP_pressure;BME280_temperature;BME280_humidity;BME280_pressure;Samples;Min_cycle;Max_cycle;Signal;HPM_P1;HPM_P2
2023/12/22 00:01:26;;;;;;;2.40;1.00;;;7.40;1.00;;;;;;5031373;28;20219;-76
2023/12/22 00:03:52;;;;;;;2.80;1.03;;;6.90;1.00;;;;;;5031616;28;20656;-75
2023/12/22 00:06:17;;;;;;;1.40;0.80;;;6.70;1.00;;;;;;5031625;28;20185;-74
2023/12/22 00:08:43;;;;;;;1.93;0.90;;;6.70;1.00;;;;;;5014103;28;20182;-74
2023/12/22 00:11:08;;;;;;;1.30;0.87;;;6.60;1.00;;;;;;5030976;28;20193;-75
2023/12/22 00:13:34;;;;;;;1.20;0.70;;;6.60;1.00;;;;;;5030297;28;20182;-77
2023/12/22 00:16:00;;;;;;;1.00;0.80;;;6.70;1.00;;;;;;5031034;28;20491;-76
2023/12/22 00:18:26;;;;;;;1.27;0.80;;;7.10;1.00;;;;;;5013775;28;20571;-74
2023/12/22 00:20:51;;;;;;;2.07;1.00;;;6.80;1.00;;;;;;5030634;28;20178;-75
2023/12/22 00:23:17;;;;;;;1.10;1.00;;;6.60;1.00;;;;;;5032062;28;20433;-76
2023/12/22 00:25:42;;;;;;;1.50;0.90;;;6.90;1.00;;;;;;5030988;28;20529;-75
2023/12/22 00:28:08;;;;;;;1.97;0.90;;;6.50;1.00;;;;;;5013048;28;20853;-75
2023/12/22 00:30:33;;;;;;;1.63;0.80;;;6.50;1.00;;;;;;5031352;28;20232;-77
2023/12/22 00:32:59;;;;;;;3.00;1.30;;;6.50;1.00;;;;;;5031736;28;20221;-75
2023/12/22 00:35:24;;;;;;;1.67;0.80;;;6.80;1.00;;;;;;5030735;28;20204;-76
2023/12/22 00:37:50;;;;;;;1.70;0.97;;;6.40;1.00;;;;;;5031406;28;20214;-77
2023/12/22 00:40:15;;;;;;;1.67;0.90;;;6.50;1.00;;;;;;5025274;28;20247;-76
2023/12/22 00:42:41;;;;;;;1.30;0.93;;;6.50;1.00;;;;;;5031183;28;20170;-73
2023/12/22 00:45:07;;;;;;;2.57;1.10;;;6.50;1.00;;;;;;5030396;28;20260;-76
2023/12/22 00:47:35;;;;;;;1.50;1.10;;;6.50;1.00;;;;;;5031172;28;20241;-77
2023/12/22 00:50:01;;;;;;;2.37;1.30;;;6.50;1.00;;;;;;5013037;28;20181;-76
2023/12/22 00:52:27;;;;;;;2.23;1.30;;;6.60;1.00;;;;;;5031165;28;20436;-75
2023/12/22 00:54:52;;;;;;;4.37;1.00;;;7.00;1.00;;;;;;5029977;28;20479;-74
2023/12/22 00:57:18;;;;;;;1.67;0.90;;;6.50;1.00;;;;;;5022215;28;20210;-74
2023/12/22 00:59:47;;;;;;;1.87;0.93;;;6.50;1.00;;;;;;5030661;28;20213;-75
2023/12/22 01:02:16;;;;;;;1.50;1.00;;;6.60;1.00;;;;;;5030357;28;20216;-74
2023/12/22 01:04:42;;;;;;;1.90;1.40;;;6.50;1.00;;;;;;5030813;28;20432;-76
2023/12/22 01:07:08;;;;;;;4.67;2.00;;;6.60;1.00;;;;;;5030281;28;20547;-74
2023/12/22 01:09:34;;;;;;;3.63;1.77;;;6.80;1.00;;;;;;5006275;28;20198;-76
2023/12/22 01:12:02;;;;;;;3.30;1.33;;;6.70;1.00;;;;;;5026990;28;20429;-74
2023/12/22 01:14:28;;;;;;;2.43;1.50;;;6.70;1.00;;;;;;5030261;28;20459;-76
2023/12/22 01:16:54;;;;;;;4.13;1.87;;;6.60;1.00;;;;;;5012679;28;20941;-77
2023/12/22 01:19:19;;;;;;;4.40;2.17;;;6.70;1.00;;;;;;5012463;28;20189;-75
2023/12/22 01:21:45;;;;;;;2.70;1.13;;;6.70;1.00;;;;;;5030195;28;20247;-75
2023/12/22 01:24:10;;;;;;;3.60;1.70;;;7.00;1.00;;;;;;5028816;28;20682;-76
2023/12/22 01:26:36;;;;;;;2.80;1.13;;;6.50;1.00;;;;;;5029922;28;20190;-76
2023/12/22 01:29:01;;;;;;;1.63;0.90;;;6.80;1.00;;;;;;5030082;28;20327;-78
2023/12/22 01:31:27;;;;;;;3.83;1.20;;;6.60;1.00;;;;;;5030311;28;20196;-76
2023/12/22 01:33:52;;;;;;;1.20;1.00;;;6.50;1.00;;;;;;5030215;28;20599;-77
2023/12/22 01:36:18;;;;;;;2.90;0.90;;;6.60;1.00;;;;;;5029406;28;20186;-76
2023/12/22 01:38:43;;;;;;;1.97;0.90;;;6.50;1.00;;;;;;5012248;28;20185;-75
2023/12/22 01:41:09;;;;;;;1.30;1.00;;;6.70;1.00;;;;;;5029975;28;20537;-76
2023/12/22 01:43:35;;;;;;;1.23;0.80;;;6.50;1.00;;;;;;5005750;28;20182;-76
2023/12/22 01:46:01;;;;;;;1.27;0.70;;;6.40;1.00;;;;;;5029464;28;20235;-76
2023/12/22 01:48:28;;;;;;;1.10;0.90;;;6.20;1.00;;;;;;5030051;28;20271;-76
2023/12/22 01:50:56;;;;;;;1.23;0.90;;;6.10;1.00;;;;;;5009856;28;20429;-76
2023/12/22 01:53:23;;;;;;;1.20;0.80;;;6.10;1.00;;;;;;5029323;28;20455;-77
2023/12/22 01:55:50;;;;;;;4.30;0.90;;;6.20;1.00;;;;;;5029309;28;20429;-75
2023/12/22 01:58:17;;;;;;;1.00;0.90;;;5.90;1.00;;;;;;5026235;28;20563;-75
2023/12/22 02:00:43;;;;;;;1.40;0.90;;;5.90;1.00;;;;;;5029525;28;20466;-76
2023/12/22 02:03:08;;;;;;;1.10;0.70;;;5.90;1.00;;;;;;5028667;28;20416;-76
2023/12/22 02:05:34;;;;;;;2.93;1.53;;;5.90;1.00;;;;;;5028548;28;20264;-77
2023/12/22 02:08:00;;;;;;;1.13;0.80;;;6.30;1.00;;;;;;5012061;28;20331;-76
2023/12/22 02:10:26;;;;;;;1.50;0.93;;;5.90;1.00;;;;;;5029279;28;20205;-76
2023/12/22 02:12:51;;;;;;;1.30;1.10;;;6.10;1.00;;;;;;5029394;28;20433;-75
2023/12/22 02:15:17;;;;;;;1.73;1.00;;;5.90;1.00;;;;;;5028668;28;20256;-75
2023/12/22 02:18:04;;;;;;;2.50;1.20;;;6.00;1.00;;;;;;5029365;28;20232;-76
2023/12/22 02:20:31;;;;;;;9.70;1.40;;;5.90;1.00;;;;;;5025895;28;20189;-76
2023/12/22 02:22:57;;;;;;;2.90;1.23;;;6.20;1.00;;;;;;5029303;28;20424;-75
2023/12/22 02:25:22;;;;;;;3.53;1.30;;;6.20;1.00;;;;;;5028675;28;21028;-74
2023/12/22 02:27:50;;;;;;;3.30;1.10;;;6.40;1.00;;;;;;5028381;28;20213;-74
2023/12/22 02:30:39;;;;;;;9.67;1.63;;;6.50;1.00;;;;;;5028397;28;20209;-75
2023/12/22 02:33:06;;;;;;;4.63;1.43;;;7.10;1.00;;;;;;5007633;28;20472;-74
2023/12/22 02:35:34;;;;;;;6.90;1.20;;;7.10;1.00;;;;;;5024165;28;20432;-76
2023/12/22 02:38:01;;;;;;;5.83;1.40;;;6.90;1.00;;;;;;5028352;28;20472;-76
2023/12/22 02:40:27;;;;;;;2.17;1.03;;;7.00;1.00;;;;;;5027693;28;20482;-74
2023/12/22 02:42:53;;;;;;;4.60;1.30;;;7.20;1.00;;;;;;5029183;28;20507;-76
2023/12/22 02:45:19;;;;;;;3.60;1.50;;;7.40;1.00;;;;;;5028381;28;20695;-75
2023/12/22 02:47:46;;;;;;;6.97;1.50;;;7.50;1.00;;;;;;5028639;28;20449;-75
2023/12/22 02:50:14;;;;;;;3.83;1.50;;;7.60;1.00;;;;;;5026836;28;20424;-74
2023/12/22 02:52:40;;;;;;;8.47;1.50;;;7.70;1.00;;;;;;5028555;28;20551;-77
2023/12/22 02:55:06;;;;;;;3.57;1.23;;;7.60;1.00;;;;;;5028010;28;20425;-71
2023/12/22 02:57:31;;;;;;;3.97;1.50;;;7.70;1.00;;;;;;5028554;28;20659;-75
2023/12/22 02:59:57;;;;;;;2.10;1.17;;;7.70;1.00;;;;;;5010912;28;20276;-76
2023/12/22 03:02:23;;;;;;;3.80;1.30;;;8.00;1.00;;;;;;5026839;28;20529;-75
2023/12/22 03:04:49;;;;;;;6.00;1.70;;;7.80;1.00;;;;;;5010870;28;20458;-77
2023/12/22 03:07:14;;;;;;;4.50;1.60;;;7.90;1.00;;;;;;5027299;28;20201;-75
2023/12/22 03:09:41;;;;;;;5.97;1.30;;;7.90;1.00;;;;;;5028708;28;20201;-76
2023/12/22 03:12:07;;;;;;;3.67;1.20;;;7.90;1.00;;;;;;5028642;28;20655;-73
2023/12/22 03:14:34;;;;;;;3.37;1.63;;;8.00;1.00;;;;;;5028377;28;21013;-75
2023/12/22 03:17:00;;;;;;;3.97;1.00;;;8.00;1.00;;;;;;5028732;28;20468;-77
2023/12/22 03:19:25;;;;;;;8.17;1.50;;;8.10;1.00;;;;;;5024196;28;20474;-76
2023/12/22 03:21:51;;;;;;;8.53;1.80;;;8.20;1.00;;;;;;5009881;28;20432;-76
2023/12/22 03:24:19;;;;;;;3.40;1.37;;;8.30;1.00;;;;;;5026887;28;20194;-75
2023/12/22 03:26:45;;;;;;;5.57;1.57;;;8.30;1.00;;;;;;5028574;28;20213;-76
2023/12/22 03:29:10;;;;;;;9.13;1.50;;;8.30;1.00;;;;;;5027126;28;20434;-75
2023/12/22 03:31:36;;;;;;;4.33;1.40;;;8.30;1.00;;;;;;5028379;28;20435;-77
2023/12/22 03:34:01;;;;;;;3.20;1.60;;;8.40;1.00;;;;;;5013710;28;20791;-75
2023/12/22 03:36:27;;;;;;;5.87;1.60;;;8.40;1.00;;;;;;5029926;28;20194;-75
2023/12/22 03:38:52;;;;;;;4.30;1.80;;;8.40;1.00;;;;;;5031710;28;20235;-76
2023/12/22 03:41:18;;;;;;;5.40;1.50;;;8.40;1.00;;;;;;5031909;28;20184;-77
2023/12/22 03:43:43;;;;;;;5.30;1.90;;;8.50;1.00;;;;;;5025505;28;20189;-77
2023/12/22 03:46:09;;;;;;;8.10;1.40;;;8.60;1.00;;;;;;5031839;28;20244;-76
2023/12/22 03:48:34;;;;;;;4.70;1.37;;;8.80;1.00;;;;;;5032294;28;20656;-75
2023/12/22 03:51:00;;;;;;;5.70;1.40;;;8.60;1.00;;;;;;5007645;28;20197;-78
2023/12/22 03:53:25;;;;;;;7.93;1.43;;;8.60;1.00;;;;;;5026317;28;20575;-77
2023/12/22 03:55:51;;;;;;;1.87;1.33;;;8.90;1.00;;;;;;5028388;28;20268;-76
2023/12/22 03:58:16;;;;;;;3.03;1.23;;;8.80;1.00;;;;;;5027034;28;20288;-76
2023/12/22 04:00:42;;;;;;;2.60;1.10;;;8.80;1.00;;;;;;5031466;28;20174;-76
2023/12/22 04:03:07;;;;;;;4.57;1.50;;;8.90;1.00;;;;;;5030513;28;20207;-77
2023/12/22 04:05:33;;;;;;;4.73;1.50;;;8.90;1.00;;;;;;5031088;28;20274;-76
2023/12/22 04:07:58;;;;;;;5.67;1.63;;;8.90;1.00;;;;;;5031749;28;20209;-74
2023/12/22 04:10:23;;;;;;;2.27;1.10;;;8.90;1.00;;;;;;5031489;28;20185;-78
2023/12/22 04:12:49;;;;;;;3.60;1.20;;;9.00;1.00;;;;;;5027553;28;20281;-76
2023/12/22 04:15:15;;;;;;;3.37;1.77;;;9.10;1.00;;;;;;5031034;28;20186;-75
2023/12/22 04:17:40;;;;;;;3.50;1.03;;;9.10;1.00;;;;;;5013832;28;20575;-77
2023/12/22 04:20:07;;;;;;;3.77;1.47;;;9.10;1.00;;;;;;5031900;28;20256;-76
2023/12/22 04:22:32;;;;;;;4.73;1.30;;;9.10;1.00;;;;;;5030827;28;20656;-76
2023/12/22 04:24:58;;;;;;;3.53;1.13;;;9.10;1.00;;;;;;5012801;28;20509;-76
2023/12/22 04:27:24;;;;;;;2.70;1.20;;;9.10;1.00;;;;;;5031051;28;20213;-76
2023/12/22 04:29:49;;;;;;;4.50;1.43;;;9.10;1.00;;;;;;5031398;28;20481;-76
2023/12/22 04:32:15;;;;;;;2.03;1.00;;;9.30;1.00;;;;;;5031211;28;20677;-76
2023/12/22 04:34:41;;;;;;;1.90;1.07;;;9.10;1.00;;;;;;5031081;28;20658;-78
2023/12/22 04:37:06;;;;;;;5.17;1.00;;;9.40;1.00;;;;;;5031165;28;20206;-77
2023/12/22 04:39:32;;;;;;;3.83;1.20;;;9.00;1.00;;;;;;5023334;28;20189;-75
2023/12/22 04:41:57;;;;;;;6.07;1.20;;;9.10;1.00;;;;;;5013567;28;20178;-77
2023/12/22 04:44:23;;;;;;;7.10;1.40;;;9.00;1.00;;;;;;5030817;28;20178;-77
2023/12/22 04:46:49;;;;;;;2.20;1.07;;;9.00;1.00;;;;;;5031013;28;20209;-76
2023/12/22 04:49:14;;;;;;;2.17;1.00;;;9.00;1.00;;;;;;5031331;28;20197;-75
2023/12/22 04:51:40;;;;;;;1.80;1.20;;;9.10;1.00;;;;;;5022756;28;20428;-75
2023/12/22 04:54:05;;;;;;;5.60;1.77;;;9.10;1.00;;;;;;5030396;28;20555;-76
2023/12/22 04:56:32;;;;;;;3.57;1.13;;;9.10;1.00;;;;;;5030097;28;20403;-75
2023/12/22 04:58:57;;;;;;;2.60;1.20;;;9.10;1.00;;;;;;5012911;28;20186;-76
2023/12/22 05:01:23;;;;;;;9.37;1.50;;;9.10;1.00;;;;;;5028765;28;20486;-76
2023/12/22 05:03:48;;;;;;;4.70;1.53;;;9.10;1.00;;;;;;5031089;28;20263;-76
2023/12/22 05:06:14;;;;;;;4.97;1.40;;;9.10;1.00;;;;;;5030355;28;20540;-76
2023/12/22 05:08:39;;;;;;;1.37;0.80;;;9.10;1.00;;;;;;5027238;28;20213;-76
2023/12/22 05:11:05;;;;;;;3.00;1.23;;;9.00;1.00;;;;;;5030225;28;20186;-77
2023/12/22 05:13:30;;;;;;;3.97;1.30;;;8.80;1.00;;;;;;5030778;28;20189;-77
2023/12/22 05:15:56;;;;;;;2.47;1.30;;;8.70;1.00;;;;;;5030179;28;20548;-76
2023/12/22 05:18:21;;;;;;;4.23;1.00;;;8.60;1.00;;;;;;5012294;28;20212;-76
2023/12/22 05:20:47;;;;;;;5.80;1.50;;;8.40;1.00;;;;;;5030079;28;20524;-78
2023/12/22 05:23:12;;;;;;;3.30;1.40;;;8.60;1.00;;;;;;5027016;28;20186;-75
2023/12/22 05:25:38;;;;;;;2.47;1.00;;;8.30;1.00;;;;;;5030187;28;20181;-76
2023/12/22 05:28:03;;;;;;;3.77;1.37;;;8.20;1.00;;;;;;5030188;28;20197;-76
2023/12/22 05:30:29;;;;;;;5.53;1.40;;;8.20;1.00;;;;;;5011358;28;20252;-76
2023/12/22 05:32:54;;;;;;;8.53;2.03;;;8.10;1.00;;;;;;5030064;28;20184;-76
2023/12/22 05:35:20;;;;;;;2.23;1.30;;;8.00;1.00;;;;;;5029168;28;20192;-75
2023/12/22 05:37:47;;;;;;;2.80;1.10;;;8.00;1.00;;;;;;5028232;28;20209;-78
2023/12/22 05:40:13;;;;;;;6.60;2.80;;;8.00;1.00;;;;;;5025977;28;20428;-76
2023/12/22 05:42:39;;;;;;;3.43;1.60;;;8.10;1.00;;;;;;5030313;28;20428;-76
2023/12/22 05:45:06;;;;;;;9.00;1.67;;;8.00;1.00;;;;;;5028045;28;20178;-76
2023/12/22 05:47:32;;;;;;;7.10;1.60;;;8.00;1.00;;;;;;5029568;28;20221;-76
2023/12/22 05:49:57;;;;;;;10.33;1.60;;;8.10;1.00;;;;;;5029826;28;20428;-76
2023/12/22 05:52:23;;;;;;;4.30;1.87;;;8.10;1.00;;;;;;5029389;28;20184;-75
2023/12/22 05:54:48;;;;;;;5.13;1.33;;;8.10;1.00;;;;;;5029443;28;20178;-75
2023/12/22 05:57:14;;;;;;;3.20;1.20;;;8.10;1.00;;;;;;5010890;28;20209;-76
2023/12/22 05:59:39;;;;;;;8.23;1.93;;;8.20;1.00;;;;;;5029623;28;20186;-75
2023/12/22 06:02:05;;;;;;;5.70;1.70;;;8.60;1.00;;;;;;5030255;28;20174;-76
2023/12/22 06:04:31;;;;;;;5.30;1.50;;;8.20;1.00;;;;;;5010911;28;20547;-75
2023/12/22 06:06:56;;;;;;;5.47;1.70;;;8.30;1.00;;;;;;5011280;28;20236;-76
2023/12/22 06:09:22;;;;;;;6.47;1.90;;;8.40;1.00;;;;;;5026236;28;20555;-76
2023/12/22 06:11:48;;;;;;;9.73;1.60;;;8.50;1.00;;;;;;5033157;28;20181;-76
2023/12/22 06:14:14;;;;;;;6.57;1.80;;;8.60;1.00;;;;;;5029317;28;20184;-77
2023/12/22 06:16:40;;;;;;;4.03;1.40;;;8.60;1.00;;;;;;5028980;28;20456;-73
2023/12/22 06:19:05;;;;;;;5.07;1.87;;;8.70;1.00;;;;;;5028905;28;20425;-76
2023/12/22 06:21:31;;;;;;;3.00;1.30;;;8.70;1.00;;;;;;5028899;28;20220;-78
2023/12/22 06:23:56;;;;;;;7.47;2.20;;;8.70;1.00;;;;;;5002583;28;20328;-73
2023/12/22 06:26:22;;;;;;;4.57;1.73;;;8.70;1.00;;;;;;5029131;28;20178;-77
2023/12/22 06:28:47;;;;;;;7.30;1.57;;;10.00;1.00;;;;;;5035428;28;20197;-75
2023/12/22 06:31:18;;;;;;;9.23;1.93;;;8.80;1.00;;;;;;5011627;28;20197;-76
2023/12/22 06:33:44;;;;;;;3.53;2.20;;;8.80;1.00;;;;;;5028307;28;20792;-75
2023/12/22 06:36:21;;;;;;;10.33;1.87;;;9.00;1.00;;;;;;5028394;28;20516;-76
2023/12/22 06:38:51;;;;;;;5.43;1.83;;;8.90;1.00;;;;;;5029052;28;20205;-75
2023/12/22 06:41:25;;;;;;;7.63;1.57;;;8.90;1.00;;;;;;5029238;28;20772;-77
2023/12/22 06:43:51;;;;;;;3.90;1.87;;;9.30;1.00;;;;;;5011037;28;20918;-75
2023/12/22 06:46:17;;;;;;;8.50;1.80;;;9.10;1.00;;;;;;5024029;28;20429;-76
2023/12/22 06:48:43;;;;;;;3.57;1.53;;;9.10;1.00;;;;;;5008862;28;20531;-77
2023/12/22 06:51:20;;;;;;;4.37;1.20;;;9.20;1.00;;;;;;5023450;28;20551;-75
2023/12/22 06:53:47;;;;;;;7.10;1.80;;;9.20;1.00;;;;;;5028530;28;21456;-75
2023/12/22 06:56:27;;;;;;;6.70;1.90;;;9.20;1.00;;;;;;5028669;28;20435;-76
2023/12/22 06:58:55;;;;;;;4.20;1.47;;;9.20;1.00;;;;;;5003299;28;20877;-76
2023/12/22 07:01:22;;;;;;;5.90;1.77;;;9.20;1.00;;;;;;5028757;28;20555;-75
2023/12/22 07:03:49;;;;;;;3.03;1.57;;;9.30;1.00;;;;;;5028031;28;20428;-76
2023/12/22 07:06:15;;;;;;;5.20;1.60;;;9.30;1.00;;;;;;5027800;28;20752;-76
2023/12/22 07:08:42;;;;;;;3.33;1.33;;;9.30;1.00;;;;;;5026748;28;21067;-76
2023/12/22 07:11:08;;;;;;;6.10;1.33;;;9.30;1.00;;;;;;5026252;28;20427;-76
2023/12/22 07:13:34;;;;;;;9.30;1.47;;;9.30;1.00;;;;;;5026050;28;20440;-76
2023/12/22 07:15:59;;;;;;;3.47;1.40;;;9.30;1.00;;;;;;5027895;28;20190;-75
2023/12/22 07:18:25;;;;;;;3.20;1.30;;;9.30;1.00;;;;;;5028379;28;20220;-75
2023/12/22 07:20:50;;;;;;;3.23;1.10;;;9.30;1.00;;;;;;5026617;28;20185;-77
2023/12/22 07:23:16;;;;;;;4.03;1.30;;;9.70;1.00;;;;;;5010565;28;20640;-72
2023/12/22 07:25:41;;;;;;;4.97;1.37;;;9.40;1.00;;;;;;5009937;28;20178;-75
2023/12/22 07:28:07;;;;;;;3.20;1.23;;;9.40;1.00;;;;;;5007670;28;20205;-75
2023/12/22 07:30:33;;;;;;;4.67;1.23;;;9.40;1.00;;;;;;5005162;28;20217;-75
2023/12/22 07:32:58;;;;;;;3.07;1.10;;;9.40;1.00;;;;;;5010558;28;20188;-77
2023/12/22 07:35:24;;;;;;;2.43;1.20;;;9.40;1.00;;;;;;5027451;28;20192;-75
2023/12/22 07:37:49;;;;;;;4.40;1.33;;;9.40;1.00;;;;;;5010639;28;20316;-76
2023/12/22 07:40:15;;;;;;;5.70;1.93;;;9.40;1.00;;;;;;5027936;28;20529;-75
2023/12/22 07:42:41;;;;;;;4.23;1.43;;;9.40;1.00;;;;;;5027355;28;20471;-75
2023/12/22 07:45:07;;;;;;;3.53;1.20;;;9.40;1.00;;;;;;5028129;28;20184;-75
2023/12/22 07:47:33;;;;;;;2.50;0.90;;;9.40;1.00;;;;;;5024204;28;20216;-74
2023/12/22 07:49:58;;;;;;;3.03;1.10;;;9.40;1.00;;;;;;5010800;28;20515;-77
2023/12/22 07:52:24;;;;;;;2.33;1.20;;;9.40;1.00;;;;;;5010706;28;20299;-77
2023/12/22 07:54:51;;;;;;;3.40;1.10;;;9.40;1.00;;;;;;5026219;28;20260;-74
2023/12/22 07:57:16;;;;;;;4.90;1.40;;;9.40;1.00;;;;;;5028167;28;20259;-76
2023/12/22 07:59:42;;;;;;;4.63;1.53;;;9.40;1.00;;;;;;5028005;28;20428;-75
2023/12/22 08:02:07;;;;;;;3.87;1.20;;;9.30;1.00;;;;;;5028390;28;20543;-75
2023/12/22 08:04:33;;;;;;;2.00;1.20;;;9.40;1.00;;;;;;5021611;28;20223;-74
2023/12/22 08:06:59;;;;;;;4.40;1.10;;;9.40;1.00;;;;;;5021323;28;20216;-76
2023/12/22 08:09:24;;;;;;;3.47;1.00;;;9.20;1.00;;;;;;5010737;28;20189;-75
2023/12/22 08:11:52;;;;;;;1.73;1.03;;;9.20;1.00;;;;;;5022192;28;20273;-75
2023/12/22 08:14:21;;;;;;;4.47;1.47;;;9.20;1.00;;;;;;5024975;28;20177;-75
2023/12/22 08:16:47;;;;;;;4.40;1.17;;;9.20;1.00;;;;;;5027056;28;20479;-76
2023/12/22 08:19:12;;;;;;;4.77;1.73;;;9.20;1.00;;;;;;5009322;28;20493;-75
2023/12/22 08:21:38;;;;;;;2.73;1.40;;;9.10;1.00;;;;;;5011044;28;20178;-75
2023/12/22 08:24:03;;;;;;;2.83;1.27;;;9.20;1.00;;;;;;5030267;28;20177;-75
2023/12/22 08:26:29;;;;;;;4.20;1.20;;;9.10;1.00;;;;;;5013800;28;20537;-76
2023/12/22 08:28:54;;;;;;;3.43;1.13;;;9.10;1.00;;;;;;5031103;28;20206;-75
2023/12/22 08:31:20;;;;;;;2.70;1.30;;;9.10;1.00;;;;;;5031817;28;20312;-76
2023/12/22 08:33:45;;;;;;;7.50;1.40;;;9.10;1.00;;;;;;5031383;28;20268;-76
2023/12/22 08:36:11;;;;;;;5.17;1.37;;;9.20;1.00;;;;;;5029920;28;20182;-75
2023/12/22 08:38:40;;;;;;;4.10;1.20;;;9.20;1.00;;;;;;5030235;28;20480;-74
2023/12/22 08:41:10;;;;;;;5.50;1.90;;;9.30;1.00;;;;;;5031657;28;20174;-76
2023/12/22 08:43:36;;;;;;;2.50;1.30;;;9.40;1.00;;;;;;5013634;28;20436;-78
2023/12/22 08:46:02;;;;;;;2.23;1.30;;;9.50;1.00;;;;;;5011350;28;20433;-76
2023/12/22 08:48:27;;;;;;;6.40;1.60;;;9.50;1.00;;;;;;5031442;28;20213;-77
2023/12/22 08:50:53;;;;;;;4.73;2.53;;;9.50;1.00;;;;;;5011044;28;20200;-76
2023/12/22 08:53:18;;;;;;;4.17;1.57;;;9.40;1.00;;;;;;5025578;28;20197;-78
2023/12/22 08:55:44;;;;;;;4.37;1.30;;;9.40;1.00;;;;;;5012601;28;20255;-76
2023/12/22 08:58:09;;;;;;;6.17;1.53;;;9.40;1.00;;;;;;5031099;28;20217;-76
2023/12/22 09:00:35;;;;;;;9.87;1.73;;;9.50;1.00;;;;;;5012539;28;20557;-78
2023/12/22 09:03:00;;;;;;;10.00;1.83;;;9.50;1.00;;;;;;5030754;28;20276;-76
2023/12/22 09:05:26;;;;;;;4.40;2.17;;;9.60;1.00;;;;;;5030781;28;20190;-76
2023/12/22 09:07:51;;;;;;;4.10;1.77;;;9.70;1.00;;;;;;5010777;28;20292;-76
2023/12/22 09:10:17;;;;;;;10.50;1.93;;;9.80;1.00;;;;;;5007161;28;20540;-76
2023/12/22 09:12:42;;;;;;;6.10;1.70;;;9.80;1.00;;;;;;5027070;28;20240;-78
2023/12/22 09:15:08;;;;;;;6.30;2.17;;;9.80;1.00;;;;;;5030218;28;20185;-77
2023/12/22 09:17:34;;;;;;;10.40;2.00;;;9.90;1.00;;;;;;5029371;28;20279;-77
2023/12/22 09:20:00;;;;;;;8.70;2.10;;;9.90;1.00;;;;;;5029690;28;20185;-78
2023/12/22 09:22:25;;;;;;;4.93;1.60;;;10.00;1.00;;;;;;5029641;28;20408;-75
2023/12/22 09:24:51;;;;;;;5.83;1.93;;;10.00;1.00;;;;;;5031161;28;20209;-76
2023/12/22 09:27:16;;;;;;;8.27;2.13;;;9.90;1.00;;;;;;5029357;28;20214;-77
2023/12/22 09:29:42;;;;;;;6.70;1.93;;;10.00;1.00;;;;;;5028878;28;20266;-76
2023/12/22 09:32:07;;;;;;;6.50;2.13;;;10.00;1.00;;;;;;5011095;28;20177;-76
2023/12/22 09:34:33;;;;;;;9.37;1.87;;;10.00;1.00;;;;;;5030618;28;20276;-76
2023/12/22 09:36:59;;;;;;;6.33;2.03;;;10.00;1.00;;;;;;5010733;28;20225;-76
2023/12/22 09:39:24;;;;;;;14.10;2.30;;;10.00;1.00;;;;;;5025034;28;20194;-76
2023/12/22 09:41:50;;;;;;;7.43;2.30;;;10.10;1.00;;;;;;5029134;28;20178;-77
2023/12/22 09:44:20;;;;;;;9.10;2.50;;;10.10;1.00;;;;;;5030430;28;20174;-75
2023/12/22 09:46:49;;;;;;;10.73;2.07;;;10.20;1.00;;;;;;5010460;28;20455;-76
2023/12/22 09:49:16;;;;;;;5.30;1.80;;;10.20;1.00;;;;;;5012876;28;20435;-76
2023/12/22 09:51:44;;;;;;;8.43;2.20;;;10.20;1.00;;;;;;5026248;28;20595;-76
2023/12/22 09:54:10;;;;;;;11.70;3.60;;;10.30;1.00;;;;;;5030288;28;20413;-76
2023/12/22 09:56:41;;;;;;;9.50;2.43;;;10.40;1.00;;;;;;5028331;28;20443;-76
2023/12/22 09:59:09;;;;;;;9.33;2.13;;;10.30;1.00;;;;;;5010238;28;20424;-77
2023/12/22 10:01:35;;;;;;;15.57;2.40;;;10.40;1.00;;;;;;5034327;28;20432;-75
2023/12/22 10:04:01;;;;;;;14.60;2.30;;;10.40;1.00;;;;;;5029806;28;20421;-77
2023/12/22 10:06:27;;;;;;;9.33;2.33;;;10.40;1.00;;;;;;5029450;28;20482;-77
2023/12/22 10:08:54;;;;;;;8.87;3.00;;;10.40;1.00;;;;;;5030111;28;20178;-77
2023/12/22 10:11:21;;;;;;;6.80;1.90;;;10.50;1.00;;;;;;5008837;28;20437;-76
2023/12/22 10:13:50;;;;;;;10.00;2.33;;;10.50;1.00;;;;;;5026462;28;20516;-76
2023/12/22 10:16:15;;;;;;;7.50;2.40;;;10.50;1.00;;;;;;5029503;28;20501;-76
2023/12/22 10:18:41;;;;;;;10.47;2.63;;;10.50;1.00;;;;;;5028585;28;20469;-76
2023/12/22 10:21:06;;;;;;;6.80;2.20;;;10.50;1.00;;;;;;5026911;28;20604;-76
2023/12/22 10:23:32;;;;;;;10.07;2.50;;;10.50;1.00;;;;;;5029670;28;20186;-75
2023/12/22 10:25:58;;;;;;;9.83;2.97;;;10.40;1.00;;;;;;5029030;28;20192;-75
2023/12/22 10:28:26;;;;;;;4.23;1.90;;;10.80;1.00;;;;;;5025837;28;20290;-75
2023/12/22 10:30:53;;;;;;;13.60;2.50;;;11.00;1.00;;;;;;5027938;28;20551;-77
2023/12/22 10:33:18;;;;;;;8.37;2.60;;;10.80;1.00;;;;;;5029657;28;20935;-75
2023/12/22 10:35:44;;;;;;;8.13;2.50;;;10.60;1.00;;;;;;5029660;28;20425;-75
2023/12/22 10:38:10;;;;;;;9.60;2.37;;;10.50;1.00;;;;;;5011033;28;20220;-75
2023/12/22 10:40:37;;;;;;;11.80;2.50;;;10.50;1.00;;;;;;5029689;28;20173;-75
2023/12/22 10:43:04;;;;;;;11.00;2.90;;;10.40;1.00;;;;;;5027937;28;20189;-74
2023/12/22 10:45:30;;;;;;;7.37;2.40;;;10.40;1.00;;;;;;5029094;28;20444;-74
2023/12/22 10:47:57;;;;;;;10.83;2.23;;;10.40;1.00;;;;;;5029038;28;20543;-74
2023/12/22 10:50:24;;;;;;;16.30;3.10;;;10.40;1.00;;;;;;5029003;28;20502;-75
2023/12/22 10:52:50;;;;;;;6.47;2.13;;;10.40;1.00;;;;;;5028899;28;20523;-73
2023/12/22 10:55:16;;;;;;;12.27;2.40;;;10.40;1.00;;;;;;5028865;28;20507;-76
2023/12/22 10:57:47;;;;;;;7.57;2.30;;;10.50;1.00;;;;;;5008754;28;20460;-77
2023/12/22 11:00:19;;;;;;;15.13;3.77;;;10.40;1.00;;;;;;5021286;28;20760;-75
2023/12/22 11:02:48;;;;;;;13.70;2.60;;;10.40;1.00;;;;;;5007953;28;20941;-75
2023/12/22 11:05:17;;;;;;;12.37;2.77;;;10.50;1.00;;;;;;5028571;28;20420;-74
2023/12/22 11:07:47;;;;;;;8.20;2.63;;;10.50;1.00;;;;;;5028869;28;20816;-75
2023/12/22 11:10:16;;;;;;;12.97;3.03;;;10.50;1.00;;;;;;5011442;28;20507;-74
2023/12/22 11:12:43;;;;;;;9.13;2.80;;;10.50;1.00;;;;;;5028051;28;20523;-75
2023/12/22 11:15:11;;;;;;;5.63;2.27;;;10.40;1.00;;;;;;5024624;28;20433;-76
2023/12/22 11:17:41;;;;;;;5.63;2.23;;;10.50;1.00;;;;;;5028478;28;20476;-74
2023/12/22 11:20:09;;;;;;;13.87;2.40;;;10.50;1.00;;;;;;5028500;28;20516;-75
2023/12/22 11:22:36;;;;;;;11.20;3.50;;;10.50;1.00;;;;;;5028184;28;20962;-75
2023/12/22 11:25:02;;;;;;;5.90;1.70;;;10.40;1.00;;;;;;5028387;28;20660;-75
2023/12/22 11:27:28;;;;;;;14.60;2.53;;;10.30;1.00;;;;;;5028339;28;20452;-73
2023/12/22 11:29:55;;;;;;;9.50;2.80;;;10.20;1.00;;;;;;5010808;28;20546;-75
2023/12/22 11:32:21;;;;;;;7.83;2.30;;;10.10;1.00;;;;;;5027758;28;20511;-75
2023/12/22 11:34:47;;;;;;;8.50;2.00;;;10.10;1.00;;;;;;5028095;28;20436;-75
2023/12/22 11:37:14;;;;;;;8.73;2.07;;;10.10;1.00;;;;;;5028305;28;20495;-75
2023/12/22 11:39:43;;;;;;;11.93;2.50;;;10.00;1.00;;;;;;5024722;28;20243;-74
2023/12/22 11:42:19;;;;;;;10.70;2.43;;;10.00;1.00;;;;;;5027964;28;20429;-75
2023/12/22 11:44:45;;;;;;;11.87;2.17;;;10.00;1.00;;;;;;5010865;28;20770;-75
2023/12/22 11:47:13;;;;;;;8.73;2.80;;;10.00;1.00;;;;;;5010547;28;20452;-75
2023/12/22 11:49:38;;;;;;;8.27;2.70;;;10.00;1.00;;;;;;5027419;28;20308;-75
2023/12/22 11:52:14;;;;;;;5.63;2.13;;;10.00;1.00;;;;;;5028744;28;20549;-74
2023/12/22 11:54:48;;;;;;;6.87;1.93;;;9.90;1.00;;;;;;5030353;28;20201;-73
2023/12/22 11:57:32;;;;;;;7.93;2.10;;;9.90;1.00;;;;;;5031728;28;20586;-74
2023/12/22 12:00:31;;;;;;;5.57;2.17;;;9.90;1.00;;;;;;5031710;28;20432;-75
2023/12/22 12:02:57;;;;;;;13.87;2.40;;;9.90;1.00;;;;;;5032275;28;20843;-74
2023/12/22 12:05:23;;;;;;;4.60;2.30;;;10.00;1.00;;;;;;5014187;28;20460;-75
2023/12/22 12:07:49;;;;;;;8.23;2.60;;;10.00;1.00;;;;;;5032830;28;20216;-75
2023/12/22 12:10:33;;;;;;;5.63;1.73;;;10.00;1.00;;;;;;5029543;28;20196;-75
2023/12/22 12:13:05;;;;;;;6.13;2.00;;;10.00;1.00;;;;;;5029676;28;20432;-74
2023/12/22 12:15:34;;;;;;;8.30;1.83;;;10.10;1.00;;;;;;5030541;28;20436;-75
2023/12/22 12:18:00;;;;;;;6.20;1.83;;;10.10;1.00;;;;;;5028136;28;20551;-75
2023/12/22 12:20:27;;;;;;;5.00;1.87;;;10.20;1.00;;;;;;5013978;28;20498;-76
2023/12/22 12:22:53;;;;;;;3.50;2.00;;;10.20;1.00;;;;;;5032122;28;20424;-76
2023/12/22 12:25:25;;;;;;;6.77;1.60;;;10.20;1.00;;;;;;5031751;28;20499;-74
2023/12/22 12:28:00;;;;;;;3.43;1.70;;;10.20;1.00;;;;;;5029480;28;20452;-77
2023/12/22 12:30:26;;;;;;;2.83;1.60;;;10.20;1.00;;;;;;5012451;28;20463;-75
2023/12/22 12:32:52;;;;;;;4.83;1.67;;;10.20;1.00;;;;;;5033139;28;20425;-75
2023/12/22 12:35:19;;;;;;;6.83;1.47;;;10.10;1.00;;;;;;5031751;28;20280;-76
2023/12/22 12:37:45;;;;;;;2.60;1.07;;;10.10;1.00;;;;;;5030850;28;20325;-75
2023/12/22 12:40:11;;;;;;;4.90;2.00;;;10.10;1.00;;;;;;5013898;28;20470;-78
2023/12/22 12:42:37;;;;;;;2.23;1.10;;;10.10;1.00;;;;;;5032172;28;20432;-75
2023/12/22 12:45:05;;;;;;;6.20;1.50;;;10.20;1.00;;;;;;5031321;28;20648;-77
2023/12/22 12:47:31;;;;;;;2.90;1.43;;;10.20;1.00;;;;;;5014446;28;20818;-75
2023/12/22 12:49:59;;;;;;;4.83;1.40;;;10.20;1.00;;;;;;5031975;28;20440;-75
2023/12/22 12:52:25;;;;;;;3.00;1.70;;;10.20;1.00;;;;;;5014355;28;20193;-76
2023/12/22 12:54:51;;;;;;;3.03;1.33;;;10.20;1.00;;;;;;5031498;28;20802;-75
2023/12/22 12:57:17;;;;;;;2.57;1.30;;;10.20;1.00;;;;;;5031318;28;20464;-75
2023/12/22 12:59:51;;;;;;;5.53;1.13;;;10.20;1.00;;;;;;5013897;28;20803;-74